sensor_id;sensor_type;location;lat;lon;timestamp;temperature;humidity
14786;DHT22;7484;49.906;9.058;2023-05-10T00:02:24;14.90;99.90
14786;DHT22;7484;49.906;9.058;2023-05-10T00:04:52;14.80;99.90
14786;DHT22;7484;49.906;9.058;2023-05-10T00:07:18;14.80;99.90
14786;DHT22;7484;49.906;9.058;2023-05-10T00:09:46;14.80;99.90
14786;DHT22;7484;49.906;9.058;2023-05-10T00:12:13;14.90;99.90
14786;DHT22;7484;49.906;9.058;2023-05-10T00:14:40;14.90;99.90
14786;DHT22;7484;49.906;9.058;2023-05-10T00:17:06;14.90;99.90
14786;DHT22;7484;49.906;9.058;2023-05-10T00:19:33;14.70;99.90
14786;DHT22;7484;49.906;9.058;2023-05-10T00:22:00;14.40;99.90
14786;DHT22;7484;49.906;9.058;2023-05-10T00:24:27;14.40;99.90
14786;DHT22;7484;49.906;9.058;2023-05-10T00:26:55;14.40;99.90
14786;DHT22;7484;49.906;9.058;2023-05-10T00:29:22;14.50;99.90
14786;DHT22;7484;49.906;9.058;2023-05-10T00:31:49;14.40;99.90
14786;DHT22;7484;49.906;9.058;2023-05-10T00:34:16;14.40;99.90
14786;DHT22;7484;49.906;9.058;2023-05-10T00:36:42;14.30;99.90
14786;DHT22;7484;49.906;9.058;2023-05-10T00:39:09;14.20;99.90
14786;DHT22;7484;49.906;9.058;2023-05-10T00:41:36;14.20;99.90
14786;DHT22;7484;49.906;9.058;2023-05-10T00:44:06;14.10;99.90
14786;DHT22;7484;49.906;9.058;2023-05-10T00:46:32;14.10;99.90
14786;DHT22;7484;49.906;9.058;2023-05-10T00:48:59;14.00;99.90
14786;DHT22;7484;49.906;9.058;2023-05-10T00:51:26;14.00;99.90
14786;DHT22;7484;49.906;9.058;2023-05-10T00:53:53;14.00;99.90
14786;DHT22;7484;49.906;9.058;2023-05-10T00:56:21;14.00;99.90
14786;DHT22;7484;49.906;9.058;2023-05-10T00:58:50;14.00;99.90
14786;DHT22;7484;49.906;9.058;2023-05-10T01:01:18;13.90;99.90
14786;DHT22;7484;49.906;9.058;2023-05-10T01:03:46;13.80;99.90
14786;DHT22;7484;49.906;9.058;2023-05-10T01:06:14;13.80;99.90
14786;DHT22;7484;49.906;9.058;2023-05-10T01:08:41;13.90;99.90
14786;DHT22;7484;49.906;9.058;2023-05-10T01:11:08;14.00;99.90
14786;DHT22;7484;49.906;9.058;2023-05-10T01:13:38;14.00;99.90
14786;DHT22;7484;49.906;9.058;2023-05-10T01:16:06;14.00;99.90
14786;DHT22;7484;49.906;9.058;2023-05-10T01:18:36;14.10;99.90
14786;DHT22;7484;49.906;9.058;2023-05-10T01:21:17;14.10;99.90
14786;DHT22;7484;49.906;9.058;2023-05-10T01:24:12;14.00;99.90
14786;DHT22;7484;49.906;9.058;2023-05-10T01:30:01;14.00;99.90
14786;DHT22;7484;49.906;9.058;2023-05-10T01:32:37;14.00;99.90
14786;DHT22;7484;49.906;9.058;2023-05-10T01:35:12;13.90;99.90
14786;DHT22;7484;49.906;9.058;2023-05-10T01:37:49;13.90;99.90
14786;DHT22;7484;49.906;9.058;2023-05-10T01:40:21;13.90;99.90
14786;DHT22;7484;49.906;9.058;2023-05-10T01:42:51;13.80;99.90
14786;DHT22;7484;49.906;9.058;2023-05-10T01:45:24;13.80;99.90
14786;DHT22;7484;49.906;9.058;2023-05-10T01:48:02;13.80;99.90
14786;DHT22;7484;49.906;9.058;2023-05-10T01:50:32;13.70;99.90
14786;DHT22;7484;49.906;9.058;2023-05-10T01:53:01;13.60;99.90
14786;DHT22;7484;49.906;9.058;2023-05-10T01:55:31;13.60;99.90
14786;DHT22;7484;49.906;9.058;2023-05-10T01:58:02;13.70;99.90
14786;DHT22;7484;49.906;9.058;2023-05-10T02:00:31;13.80;99.90
14786;DHT22;7484;49.906;9.058;2023-05-10T02:03:00;13.70;99.90
14786;DHT22;7484;49.906;9.058;2023-05-10T02:05:29;13.60;99.90
14786;DHT22;7484;49.906;9.058;2023-05-10T02:07:58;13.60;99.90
14786;DHT22;7484;49.906;9.058;2023-05-10T02:10:26;13.60;99.90
14786;DHT22;7484;49.906;9.058;2023-05-10T02:12:53;13.60;99.90
14786;DHT22;7484;49.906;9.058;2023-05-10T02:15:23;13.60;99.90
14786;DHT22;7484;49.906;9.058;2023-05-10T02:17:51;13.70;99.90
14786;DHT22;7484;49.906;9.058;2023-05-10T02:20:20;13.60;99.90
14786;DHT22;7484;49.906;9.058;2023-05-10T02:22:49;13.50;99.90
14786;DHT22;7484;49.906;9.058;2023-05-10T02:25:18;13.60;99.90
14786;DHT22;7484;49.906;9.058;2023-05-10T02:27:47;13.60;99.90
14786;DHT22;7484;49.906;9.058;2023-05-10T02:30:14;13.70;99.90
14786;DHT22;7484;49.906;9.058;2023-05-10T02:32:42;13.60;99.90
14786;DHT22;7484;49.906;9.058;2023-05-10T02:35:10;13.60;99.90
14786;DHT22;7484;49.906;9.058;2023-05-10T02:37:39;13.60;99.90
14786;DHT22;7484;49.906;9.058;2023-05-10T02:40:07;13.60;99.90
14786;DHT22;7484;49.906;9.058;2023-05-10T02:42:37;13.70;99.90
14786;DHT22;7484;49.906;9.058;2023-05-10T02:45:08;13.90;99.90
14786;DHT22;7484;49.906;9.058;2023-05-10T02:47:36;13.90;99.90
14786;DHT22;7484;49.906;9.058;2023-05-10T02:50:04;13.90;99.90
14786;DHT22;7484;49.906;9.058;2023-05-10T02:52:40;13.80;99.90
14786;DHT22;7484;49.906;9.058;2023-05-10T02:55:11;13.70;99.90
14786;DHT22;7484;49.906;9.058;2023-05-10T02:57:41;13.70;99.90
14786;DHT22;7484;49.906;9.058;2023-05-10T03:00:09;13.80;99.90
14786;DHT22;7484;49.906;9.058;2023-05-10T03:02:35;13.80;99.90
14786;DHT22;7484;49.906;9.058;2023-05-10T03:05:03;13.90;99.90
14786;DHT22;7484;49.906;9.058;2023-05-10T03:07:30;14.00;99.90
14786;DHT22;7484;49.906;9.058;2023-05-10T03:09:59;14.00;99.90
14786;DHT22;7484;49.906;9.058;2023-05-10T03:12:33;13.90;99.90
14786;DHT22;7484;49.906;9.058;2023-05-10T03:15:13;13.80;99.90
14786;DHT22;7484;49.906;9.058;2023-05-10T03:17:47;13.70;99.90
14786;DHT22;7484;49.906;9.058;2023-05-10T03:20:21;13.60;99.90
14786;DHT22;7484;49.906;9.058;2023-05-10T03:22:53;13.50;99.90
14786;DHT22;7484;49.906;9.058;2023-05-10T03:25:24;13.50;99.90
14786;DHT22;7484;49.906;9.058;2023-05-10T03:27:52;13.40;99.90
14786;DHT22;7484;49.906;9.058;2023-05-10T03:30:19;13.60;99.90
14786;DHT22;7484;49.906;9.058;2023-05-10T03:32:46;13.50;99.90
14786;DHT22;7484;49.906;9.058;2023-05-10T03:35:15;13.50;99.90
14786;DHT22;7484;49.906;9.058;2023-05-10T03:37:42;13.50;99.90
14786;DHT22;7484;49.906;9.058;2023-05-10T03:40:09;13.50;99.90
14786;DHT22;7484;49.906;9.058;2023-05-10T03:42:40;13.40;99.90
14786;DHT22;7484;49.906;9.058;2023-05-10T03:45:08;13.40;99.90
14786;DHT22;7484;49.906;9.058;2023-05-10T03:47:35;13.40;99.90
14786;DHT22;7484;49.906;9.058;2023-05-10T03:50:01;13.30;99.90
14786;DHT22;7484;49.906;9.058;2023-05-10T03:52:28;13.30;99.90
14786;DHT22;7484;49.906;9.058;2023-05-10T03:54:55;13.40;99.90
14786;DHT22;7484;49.906;9.058;2023-05-10T03:57:23;13.40;99.90
14786;DHT22;7484;49.906;9.058;2023-05-10T03:59:51;13.40;99.90
14786;DHT22;7484;49.906;9.058;2023-05-10T04:02:17;13.40;99.90
14786;DHT22;7484;49.906;9.058;2023-05-10T04:04:44;13.40;99.90
14786;DHT22;7484;49.906;9.058;2023-05-10T04:07:11;13.40;99.90
14786;DHT22;7484;49.906;9.058;2023-05-10T04:09:37;13.90;99.90
14786;DHT22;7484;49.906;9.058;2023-05-10T04:12:05;13.40;99.90
14786;DHT22;7484;49.906;9.058;2023-05-10T04:14:32;13.40;99.90
14786;DHT22;7484;49.906;9.058;2023-05-10T04:17:00;13.40;99.90
14786;DHT22;7484;49.906;9.058;2023-05-10T04:19:29;13.40;99.90
14786;DHT22;7484;49.906;9.058;2023-05-10T04:21:56;13.30;99.90
14786;DHT22;7484;49.906;9.058;2023-05-10T04:24:23;13.40;99.90
14786;DHT22;7484;49.906;9.058;2023-05-10T04:26:50;13.40;99.90
14786;DHT22;7484;49.906;9.058;2023-05-10T04:29:17;13.40;99.90
14786;DHT22;7484;49.906;9.058;2023-05-10T04:31:43;13.40;99.90
14786;DHT22;7484;49.906;9.058;2023-05-10T04:34:12;13.40;99.90
14786;DHT22;7484;49.906;9.058;2023-05-10T04:36:38;13.30;99.90
14786;DHT22;7484;49.906;9.058;2023-05-10T04:39:06;13.40;99.90
14786;DHT22;7484;49.906;9.058;2023-05-10T04:41:34;13.40;99.90
14786;DHT22;7484;49.906;9.058;2023-05-10T04:44:01;13.40;99.90
14786;DHT22;7484;49.906;9.058;2023-05-10T04:46:28;13.50;99.90
14786;DHT22;7484;49.906;9.058;2023-05-10T04:48:54;13.50;99.90
14786;DHT22;7484;49.906;9.058;2023-05-10T04:51:22;13.60;99.90
14786;DHT22;7484;49.906;9.058;2023-05-10T04:53:49;13.60;99.90
14786;DHT22;7484;49.906;9.058;2023-05-10T04:56:16;13.60;99.90
14786;DHT22;7484;49.906;9.058;2023-05-10T04:58:42;13.60;99.90
14786;DHT22;7484;49.906;9.058;2023-05-10T05:01:09;13.50;99.90
14786;DHT22;7484;49.906;9.058;2023-05-10T05:03:36;13.50;99.90
14786;DHT22;7484;49.906;9.058;2023-05-10T05:06:03;13.60;99.90
14786;DHT22;7484;49.906;9.058;2023-05-10T05:08:31;13.60;99.90
14786;DHT22;7484;49.906;9.058;2023-05-10T05:10:58;13.60;99.90
14786;DHT22;7484;49.906;9.058;2023-05-10T05:13:25;13.60;99.90
14786;DHT22;7484;49.906;9.058;2023-05-10T05:15:51;13.60;99.90
14786;DHT22;7484;49.906;9.058;2023-05-10T05:18:18;13.60;99.90
14786;DHT22;7484;49.906;9.058;2023-05-10T05:20:45;13.70;99.90
14786;DHT22;7484;49.906;9.058;2023-05-10T05:23:12;13.80;99.90
14786;DHT22;7484;49.906;9.058;2023-05-10T05:25:40;13.80;99.90
14786;DHT22;7484;49.906;9.058;2023-05-10T05:28:07;13.80;99.90
14786;DHT22;7484;49.906;9.058;2023-05-10T05:30:34;13.80;99.90
14786;DHT22;7484;49.906;9.058;2023-05-10T05:33:00;13.80;99.90
14786;DHT22;7484;49.906;9.058;2023-05-10T05:35:27;13.90;99.90
14786;DHT22;7484;49.906;9.058;2023-05-10T05:37:54;13.80;99.90
14786;DHT22;7484;49.906;9.058;2023-05-10T05:40:21;13.90;99.90
14786;DHT22;7484;49.906;9.058;2023-05-10T05:42:49;13.80;99.90
14786;DHT22;7484;49.906;9.058;2023-05-10T05:45:16;13.80;99.90
14786;DHT22;7484;49.906;9.058;2023-05-10T05:47:43;13.90;99.90
14786;DHT22;7484;49.906;9.058;2023-05-10T05:50:10;13.90;99.90
14786;DHT22;7484;49.906;9.058;2023-05-10T05:52:36;13.90;99.90
14786;DHT22;7484;49.906;9.058;2023-05-10T05:55:04;13.80;99.90
14786;DHT22;7484;49.906;9.058;2023-05-10T05:57:30;13.90;99.90
14786;DHT22;7484;49.906;9.058;2023-05-10T05:59:58;13.90;99.90
14786;DHT22;7484;49.906;9.058;2023-05-10T06:02:25;14.00;99.90
14786;DHT22;7484;49.906;9.058;2023-05-10T06:04:52;14.00;99.90
14786;DHT22;7484;49.906;9.058;2023-05-10T06:07:18;13.80;99.90
14786;DHT22;7484;49.906;9.058;2023-05-10T06:09:45;13.80;99.90
14786;DHT22;7484;49.906;9.058;2023-05-10T06:12:12;13.80;99.90
14786;DHT22;7484;49.906;9.058;2023-05-10T06:14:39;13.80;99.90
14786;DHT22;7484;49.906;9.058;2023-05-10T06:17:07;13.80;99.90
14786;DHT22;7484;49.906;9.058;2023-05-10T06:19:33;13.90;99.90
14786;DHT22;7484;49.906;9.058;2023-05-10T06:22:01;13.80;99.90
14786;DHT22;7484;49.906;9.058;2023-05-10T06:24:28;13.80;99.90
14786;DHT22;7484;49.906;9.058;2023-05-10T06:26:54;13.80;99.90
14786;DHT22;7484;49.906;9.058;2023-05-10T06:29:21;13.90;99.90
14786;DHT22;7484;49.906;9.058;2023-05-10T06:31:48;14.00;99.90
14786;DHT22;7484;49.906;9.058;2023-05-10T06:34:16;14.10;99.90
14786;DHT22;7484;49.906;9.058;2023-05-10T06:36:42;14.00;99.90
14786;DHT22;7484;49.906;9.058;2023-05-10T06:39:09;14.00;99.90
14786;DHT22;7484;49.906;9.058;2023-05-10T06:41:37;14.10;99.90
14786;DHT22;7484;49.906;9.058;2023-05-10T06:44:04;14.20;99.90
14786;DHT22;7484;49.906;9.058;2023-05-10T06:46:30;14.20;99.90
14786;DHT22;7484;49.906;9.058;2023-05-10T06:48:57;14.10;99.90
14786;DHT22;7484;49.906;9.058;2023-05-10T06:51:25;14.20;99.90
14786;DHT22;7484;49.906;9.058;2023-05-10T06:53:52;14.30;99.90
14786;DHT22;7484;49.906;9.058;2023-05-10T06:56:19;14.30;99.90
14786;DHT22;7484;49.906;9.058;2023-05-10T06:58:46;14.40;99.90
14786;DHT22;7484;49.906;9.058;2023-05-10T07:01:13;14.40;99.90
14786;DHT22;7484;49.906;9.058;2023-05-10T07:03:40;14.50;99.90
14786;DHT22;7484;49.906;9.058;2023-05-10T07:06:07;14.50;99.90
14786;DHT22;7484;49.906;9.058;2023-05-10T07:08:35;14.50;99.90
14786;DHT22;7484;49.906;9.058;2023-05-10T07:11:02;14.50;99.90
14786;DHT22;7484;49.906;9.058;2023-05-10T07:13:30;14.60;99.90
14786;DHT22;7484;49.906;9.058;2023-05-10T07:15:57;14.50;99.90
14786;DHT22;7484;49.906;9.058;2023-05-10T07:18:24;14.70;99.90
14786;DHT22;7484;49.906;9.058;2023-05-10T07:20:50;14.80;99.90
14786;DHT22;7484;49.906;9.058;2023-05-10T07:23:18;14.90;99.90
14786;DHT22;7484;49.906;9.058;2023-05-10T07:25:47;15.00;99.90
14786;DHT22;7484;49.906;9.058;2023-05-10T07:28:14;15.10;99.90
14786;DHT22;7484;49.906;9.058;2023-05-10T07:30:42;15.00;99.90
14786;DHT22;7484;49.906;9.058;2023-05-10T07:33:09;15.10;99.90
14786;DHT22;7484;49.906;9.058;2023-05-10T07:35:37;15.30;99.90
14786;DHT22;7484;49.906;9.058;2023-05-10T07:38:03;15.10;99.90
14786;DHT22;7484;49.906;9.058;2023-05-10T07:40:30;15.30;99.90
14786;DHT22;7484;49.906;9.058;2023-05-10T07:42:59;15.40;99.90
14786;DHT22;7484;49.906;9.058;2023-05-10T07:45:27;15.40;99.90
14786;DHT22;7484;49.906;9.058;2023-05-10T07:47:53;15.50;99.90
14786;DHT22;7484;49.906;9.058;2023-05-10T07:50:20;15.50;99.90
14786;DHT22;7484;49.906;9.058;2023-05-10T07:52:47;15.50;99.90
14786;DHT22;7484;49.906;9.058;2023-05-10T07:55:14;15.60;99.90
14786;DHT22;7484;49.906;9.058;2023-05-10T07:57:42;15.50;99.90
14786;DHT22;7484;49.906;9.058;2023-05-10T08:00:12;15.70;99.90
14786;DHT22;7484;49.906;9.058;2023-05-10T08:02:39;15.60;99.90
14786;DHT22;7484;49.906;9.058;2023-05-10T08:05:07;15.70;99.90
14786;DHT22;7484;49.906;9.058;2023-05-10T08:07:34;15.70;99.90
14786;DHT22;7484;49.906;9.058;2023-05-10T08:10:01;15.70;99.90
14786;DHT22;7484;49.906;9.058;2023-05-10T08:12:27;15.80;99.90
14786;DHT22;7484;49.906;9.058;2023-05-10T08:14:54;15.90;99.90
14786;DHT22;7484;49.906;9.058;2023-05-10T08:17:22;15.90;99.90
14786;DHT22;7484;49.906;9.058;2023-05-10T08:19:49;16.00;99.90
14786;DHT22;7484;49.906;9.058;2023-05-10T08:22:16;16.10;99.90
14786;DHT22;7484;49.906;9.058;2023-05-10T08:24:43;16.40;99.90
14786;DHT22;7484;49.906;9.058;2023-05-10T08:27:12;16.60;99.90
14786;DHT22;7484;49.906;9.058;2023-05-10T08:29:39;16.50;99.90
14786;DHT22;7484;49.906;9.058;2023-05-10T08:32:06;16.40;99.90
14786;DHT22;7484;49.906;9.058;2023-05-10T08:34:34;16.20;99.90
14786;DHT22;7484;49.906;9.058;2023-05-10T08:37:01;16.30;99.90
14786;DHT22;7484;49.906;9.058;2023-05-10T08:39:28;16.40;99.90
14786;DHT22;7484;49.906;9.058;2023-05-10T08:41:58;16.40;99.90
14786;DHT22;7484;49.906;9.058;2023-05-10T08:44:26;16.30;99.90
14786;DHT22;7484;49.906;9.058;2023-05-10T08:46:54;16.20;99.90
14786;DHT22;7484;49.906;9.058;2023-05-10T08:49:21;16.30;99.90
14786;DHT22;7484;49.906;9.058;2023-05-10T08:51:53;16.30;99.90
14786;DHT22;7484;49.906;9.058;2023-05-10T08:54:21;16.20;99.90
14786;DHT22;7484;49.906;9.058;2023-05-10T08:56:48;16.40;99.90
14786;DHT22;7484;49.906;9.058;2023-05-10T08:59:15;16.30;99.90
14786;DHT22;7484;49.906;9.058;2023-05-10T09:01:43;16.40;99.90
14786;DHT22;7484;49.906;9.058;2023-05-10T09:04:11;16.40;99.90
14786;DHT22;7484;49.906;9.058;2023-05-10T09:06:38;16.40;99.90
14786;DHT22;7484;49.906;9.058;2023-05-10T09:09:07;16.60;99.90
14786;DHT22;7484;49.906;9.058;2023-05-10T09:11:33;16.80;99.90
14786;DHT22;7484;49.906;9.058;2023-05-10T09:14:01;16.70;99.90
14786;DHT22;7484;49.906;9.058;2023-05-10T09:16:28;16.40;99.90
14786;DHT22;7484;49.906;9.058;2023-05-10T09:18:54;16.30;99.90
14786;DHT22;7484;49.906;9.058;2023-05-10T09:21:21;16.30;99.90
14786;DHT22;7484;49.906;9.058;2023-05-10T09:23:48;16.40;99.90
14786;DHT22;7484;49.906;9.058;2023-05-10T09:26:16;16.10;99.90
14786;DHT22;7484;49.906;9.058;2023-05-10T09:28:50;15.90;99.90
14786;DHT22;7484;49.906;9.058;2023-05-10T09:31:18;15.80;99.90
14786;DHT22;7484;49.906;9.058;2023-05-10T09:33:46;15.90;99.90
14786;DHT22;7484;49.906;9.058;2023-05-10T09:36:13;16.00;99.90
14786;DHT22;7484;49.906;9.058;2023-05-10T09:38:47;16.00;99.90
14786;DHT22;7484;49.906;9.058;2023-05-10T09:41:21;16.10;99.90
14786;DHT22;7484;49.906;9.058;2023-05-10T09:43:48;15.90;99.90
14786;DHT22;7484;49.906;9.058;2023-05-10T09:46:15;15.80;99.90
14786;DHT22;7484;49.906;9.058;2023-05-10T09:48:43;15.80;99.90
14786;DHT22;7484;49.906;9.058;2023-05-10T09:51:10;15.90;99.90
14786;DHT22;7484;49.906;9.058;2023-05-10T09:53:37;16.00;99.90
14786;DHT22;7484;49.906;9.058;2023-05-10T09:56:04;16.10;99.90
14786;DHT22;7484;49.906;9.058;2023-05-10T09:58:36;16.00;99.90
14786;DHT22;7484;49.906;9.058;2023-05-10T10:01:03;15.90;99.90
14786;DHT22;7484;49.906;9.058;2023-05-10T10:03:30;15.80;99.90
14786;DHT22;7484;49.906;9.058;2023-05-10T10:05:57;15.80;99.90
14786;DHT22;7484;49.906;9.058;2023-05-10T10:08:24;15.90;99.90
14786;DHT22;7484;49.906;9.058;2023-05-10T10:10:51;15.90;99.90
14786;DHT22;7484;49.906;9.058;2023-05-10T10:13:18;16.00;99.90
14786;DHT22;7484;49.906;9.058;2023-05-10T10:15:47;16.20;99.90
14786;DHT22;7484;49.906;9.058;2023-05-10T10:18:16;16.60;99.90
14786;DHT22;7484;49.906;9.058;2023-05-10T10:20:44;16.70;99.90
14786;DHT22;7484;49.906;9.058;2023-05-10T10:23:11;16.70;99.90
14786;DHT22;7484;49.906;9.058;2023-05-10T10:25:38;16.80;99.90
14786;DHT22;7484;49.906;9.058;2023-05-10T10:28:15;16.80;99.90
14786;DHT22;7484;49.906;9.058;2023-05-10T10:30:44;17.00;99.90
14786;DHT22;7484;49.906;9.058;2023-05-10T10:33:30;17.10;99.90
14786;DHT22;7484;49.906;9.058;2023-05-10T10:36:01;17.20;99.90
14786;DHT22;7484;49.906;9.058;2023-05-10T10:38:36;17.50;99.90
14786;DHT22;7484;49.906;9.058;2023-05-10T10:41:09;17.60;99.90
14786;DHT22;7484;49.906;9.058;2023-05-10T10:43:36;17.60;99.90
14786;DHT22;7484;49.906;9.058;2023-05-10T10:46:13;17.10;99.90
14786;DHT22;7484;49.906;9.058;2023-05-10T10:48:47;16.60;99.90
14786;DHT22;7484;49.906;9.058;2023-05-10T10:51:15;16.10;99.90
14786;DHT22;7484;49.906;9.058;2023-05-10T10:53:43;15.80;99.90
14786;DHT22;7484;49.906;9.058;2023-05-10T10:56:11;15.60;99.90
14786;DHT22;7484;49.906;9.058;2023-05-10T10:58:39;15.50;99.90
14786;DHT22;7484;49.906;9.058;2023-05-10T11:01:11;15.40;99.90
14786;DHT22;7484;49.906;9.058;2023-05-10T11:03:38;15.40;99.90
14786;DHT22;7484;49.906;9.058;2023-05-10T11:06:06;15.40;99.90
14786;DHT22;7484;49.906;9.058;2023-05-10T11:08:41;15.30;99.90
14786;DHT22;7484;49.906;9.058;2023-05-10T11:11:09;15.20;99.90
14786;DHT22;7484;49.906;9.058;2023-05-10T11:13:40;15.30;99.90
14786;DHT22;7484;49.906;9.058;2023-05-10T11:16:15;15.40;99.90
14786;DHT22;7484;49.906;9.058;2023-05-10T11:18:53;15.50;99.90
14786;DHT22;7484;49.906;9.058;2023-05-10T11:21:21;15.70;99.90
14786;DHT22;7484;49.906;9.058;2023-05-10T11:23:50;15.80;99.90
14786;DHT22;7484;49.906;9.058;2023-05-10T11:26:17;16.00;99.90
14786;DHT22;7484;49.906;9.058;2023-05-10T11:28:44;16.20;99.90
14786;DHT22;7484;49.906;9.058;2023-05-10T11:31:13;16.20;99.90
14786;DHT22;7484;49.906;9.058;2023-05-10T11:33:43;16.30;99.90
14786;DHT22;7484;49.906;9.058;2023-05-10T11:36:11;16.40;99.90
14786;DHT22;7484;49.906;9.058;2023-05-10T11:38:39;16.60;99.90
14786;DHT22;7484;49.906;9.058;2023-05-10T11:41:08;16.70;99.90
14786;DHT22;7484;49.906;9.058;2023-05-10T11:43:35;16.90;99.90
14786;DHT22;7484;49.906;9.058;2023-05-10T11:46:04;17.10;99.90
14786;DHT22;7484;49.906;9.058;2023-05-10T11:48:31;17.30;99.90
14786;DHT22;7484;49.906;9.058;2023-05-10T11:50:58;17.50;99.90
14786;DHT22;7484;49.906;9.058;2023-05-10T11:53:27;17.40;99.90
14786;DHT22;7484;49.906;9.058;2023-05-10T11:55:58;17.30;99.90
14786;DHT22;7484;49.906;9.058;2023-05-10T11:58:28;17.30;99.90
14786;DHT22;7484;49.906;9.058;2023-05-10T12:00:55;17.20;99.90
14786;DHT22;7484;49.906;9.058;2023-05-10T12:03:22;17.20;99.90
14786;DHT22;7484;49.906;9.058;2023-05-10T12:05:49;17.10;99.90
14786;DHT22;7484;49.906;9.058;2023-05-10T12:08:20;16.90;99.90
14786;DHT22;7484;49.906;9.058;2023-05-10T12:10:47;17.00;99.90
14786;DHT22;7484;49.906;9.058;2023-05-10T12:13:16;17.00;99.90
14786;DHT22;7484;49.906;9.058;2023-05-10T12:15:43;17.10;99.90
14786;DHT22;7484;49.906;9.058;2023-05-10T12:18:10;17.10;99.90
14786;DHT22;7484;49.906;9.058;2023-05-10T12:20:37;17.20;99.90
14786;DHT22;7484;49.906;9.058;2023-05-10T12:23:04;17.30;99.90
14786;DHT22;7484;49.906;9.058;2023-05-10T12:25:32;17.30;99.90
14786;DHT22;7484;49.906;9.058;2023-05-10T12:28:00;17.40;99.90
14786;DHT22;7484;49.906;9.058;2023-05-10T12:30:31;17.50;99.90
14786;DHT22;7484;49.906;9.058;2023-05-10T12:33:02;17.50;99.90
14786;DHT22;7484;49.906;9.058;2023-05-10T12:35:44;17.60;99.90
14786;DHT22;7484;49.906;9.058;2023-05-10T12:38:28;17.60;99.90
14786;DHT22;7484;49.906;9.058;2023-05-10T12:40:59;17.70;99.90
14786;DHT22;7484;49.906;9.058;2023-05-10T12:43:26;17.90;99.90
14786;DHT22;7484;49.906;9.058;2023-05-10T12:45:54;18.20;99.90
14786;DHT22;7484;49.906;9.058;2023-05-10T12:48:21;18.20;99.90
14786;DHT22;7484;49.906;9.058;2023-05-10T12:50:48;18.50;99.90
14786;DHT22;7484;49.906;9.058;2023-05-10T12:53:15;18.80;99.90
14786;DHT22;7484;49.906;9.058;2023-05-10T12:55:42;19.00;99.90
14786;DHT22;7484;49.906;9.058;2023-05-10T12:58:10;19.20;99.90
14786;DHT22;7484;49.906;9.058;2023-05-10T13:00:36;19.40;99.90
14786;DHT22;7484;49.906;9.058;2023-05-10T13:03:04;19.60;99.90
14786;DHT22;7484;49.906;9.058;2023-05-10T13:05:32;19.80;99.90
14786;DHT22;7484;49.906;9.058;2023-05-10T13:07:58;19.90;99.90
14786;DHT22;7484;49.906;9.058;2023-05-10T13:10:25;20.10;99.90
14786;DHT22;7484;49.906;9.058;2023-05-10T13:12:52;19.80;99.90
14786;DHT22;7484;49.906;9.058;2023-05-10T13:15:19;19.80;99.90
14786;DHT22;7484;49.906;9.058;2023-05-10T13:17:45;19.80;99.90
14786;DHT22;7484;49.906;9.058;2023-05-10T13:20:14;19.80;99.90
14786;DHT22;7484;49.906;9.058;2023-05-10T13:22:41;19.80;99.90
14786;DHT22;7484;49.906;9.058;2023-05-10T13:25:08;19.70;99.90
14786;DHT22;7484;49.906;9.058;2023-05-10T13:27:35;19.60;99.90
14786;DHT22;7484;49.906;9.058;2023-05-10T13:30:02;19.60;99.90
14786;DHT22;7484;49.906;9.058;2023-05-10T13:32:29;19.80;99.90
14786;DHT22;7484;49.906;9.058;2023-05-10T13:34:56;19.90;99.90
14786;DHT22;7484;49.906;9.058;2023-05-10T13:37:24;19.90;99.90
14786;DHT22;7484;49.906;9.058;2023-05-10T13:39:51;19.90;99.90
14786;DHT22;7484;49.906;9.058;2023-05-10T13:42:18;19.80;99.90
14786;DHT22;7484;49.906;9.058;2023-05-10T13:44:45;19.80;99.90
14786;DHT22;7484;49.906;9.058;2023-05-10T13:47:11;19.60;99.90
14786;DHT22;7484;49.906;9.058;2023-05-10T13:49:38;19.40;99.90
14786;DHT22;7484;49.906;9.058;2023-05-10T13:52:05;19.50;99.90
14786;DHT22;7484;49.906;9.058;2023-05-10T13:54:33;19.70;99.90
14786;DHT22;7484;49.906;9.058;2023-05-10T13:57:01;19.80;99.90
14786;DHT22;7484;49.906;9.058;2023-05-10T13:59:28;19.80;99.90
14786;DHT22;7484;49.906;9.058;2023-05-10T14:01:56;19.90;99.90
14786;DHT22;7484;49.906;9.058;2023-05-10T14:04:23;19.90;99.90
14786;DHT22;7484;49.906;9.058;2023-05-10T14:06:50;19.80;99.90
14786;DHT22;7484;49.906;9.058;2023-05-10T14:09:18;19.50;99.90
14786;DHT22;7484;49.906;9.058;2023-05-10T14:11:46;19.30;99.90
14786;DHT22;7484;49.906;9.058;2023-05-10T14:14:13;19.40;99.90
14786;DHT22;7484;49.906;9.058;2023-05-10T14:16:42;19.50;99.90
14786;DHT22;7484;49.906;9.058;2023-05-10T14:19:09;19.30;99.90
14786;DHT22;7484;49.906;9.058;2023-05-10T14:21:36;19.00;99.90
14786;DHT22;7484;49.906;9.058;2023-05-10T14:24:03;18.90;99.90
14786;DHT22;7484;49.906;9.058;2023-05-10T14:26:30;18.80;99.90
14786;DHT22;7484;49.906;9.058;2023-05-10T14:28:58;18.90;99.90
14786;DHT22;7484;49.906;9.058;2023-05-10T14:31:25;18.90;99.90
14786;DHT22;7484;49.906;9.058;2023-05-10T14:33:53;18.80;99.90
14786;DHT22;7484;49.906;9.058;2023-05-10T14:36:19;18.80;99.90
14786;DHT22;7484;49.906;9.058;2023-05-10T14:38:46;18.80;99.90
14786;DHT22;7484;49.906;9.058;2023-05-10T14:41:13;18.80;99.90
14786;DHT22;7484;49.906;9.058;2023-05-10T14:43:40;18.70;99.90
14786;DHT22;7484;49.906;9.058;2023-05-10T14:46:08;18.80;99.90
14786;DHT22;7484;49.906;9.058;2023-05-10T14:48:35;18.80;99.90
14786;DHT22;7484;49.906;9.058;2023-05-10T14:51:02;18.90;99.90
14786;DHT22;7484;49.906;9.058;2023-05-10T14:53:30;18.90;99.90
14786;DHT22;7484;49.906;9.058;2023-05-10T14:55:56;18.90;99.90
14786;DHT22;7484;49.906;9.058;2023-05-10T14:58:25;19.10;99.90
14786;DHT22;7484;49.906;9.058;2023-05-10T15:00:52;19.10;99.90
14786;DHT22;7484;49.906;9.058;2023-05-10T15:03:20;19.20;99.90
14786;DHT22;7484;49.906;9.058;2023-05-10T15:05:47;19.40;99.90
14786;DHT22;7484;49.906;9.058;2023-05-10T15:08:14;19.50;99.90
14786;DHT22;7484;49.906;9.058;2023-05-10T15:10:41;19.50;99.90
14786;DHT22;7484;49.906;9.058;2023-05-10T15:13:08;19.60;99.90
14786;DHT22;7484;49.906;9.058;2023-05-10T15:15:35;19.90;99.90
14786;DHT22;7484;49.906;9.058;2023-05-10T15:18:01;20.10;99.90
14786;DHT22;7484;49.906;9.058;2023-05-10T15:20:31;20.00;99.90
14786;DHT22;7484;49.906;9.058;2023-05-10T15:22:58;19.70;99.90
14786;DHT22;7484;49.906;9.058;2023-05-10T15:25:24;19.40;99.90
14786;DHT22;7484;49.906;9.058;2023-05-10T15:27:51;19.00;99.90
14786;DHT22;7484;49.906;9.058;2023-05-10T15:30:18;19.00;99.90
14786;DHT22;7484;49.906;9.058;2023-05-10T15:32:45;19.10;99.90
14786;DHT22;7484;49.906;9.058;2023-05-10T15:35:12;19.20;99.90
14786;DHT22;7484;49.906;9.058;2023-05-10T15:37:40;19.30;99.90
14786;DHT22;7484;49.906;9.058;2023-05-10T15:40:07;19.20;99.90
14786;DHT22;7484;49.906;9.058;2023-05-10T15:42:34;19.00;99.90
14786;DHT22;7484;49.906;9.058;2023-05-10T15:45:01;18.90;99.90
14786;DHT22;7484;49.906;9.058;2023-05-10T15:47:29;18.90;99.90
14786;DHT22;7484;49.906;9.058;2023-05-10T15:49:56;19.00;99.90
14786;DHT22;7484;49.906;9.058;2023-05-10T15:52:23;19.20;99.90
14786;DHT22;7484;49.906;9.058;2023-05-10T15:54:51;18.70;99.90